sensor_id;sensor_type;location;lat;lon;timestamp;P1;durP1;ratioP1;P2;durP2;ratioP2
43226;SDS011;28839;52.404;9.808;2023-07-13T00:01:21;6.65;;;2.47;;
43226;SDS011;28839;52.404;9.808;2023-07-13T00:08:15;4.03;;;2.70;;
43226;SDS011;28839;52.404;9.808;2023-07-13T00:15:12;4.93;;;2.45;;
43226;SDS011;28839;52.404;9.808;2023-07-13T00:22:08;5.82;;;2.58;;
43226;SDS011;28839;52.404;9.808;2023-07-13T00:29:02;4.80;;;2.45;;
43226;SDS011;28839;52.404;9.808;2023-07-13T00:35:57;6.03;;;2.53;;
43226;SDS011;28839;52.404;9.808;2023-07-13T00:42:51;3.35;;;2.08;;
43226;SDS011;28839;52.404;9.808;2023-07-13T00:49:45;6.53;;;2.53;;
43226;SDS011;28839;52.404;9.808;2023-07-13T00:56:41;5.95;;;2.50;;
43226;SDS011;28839;52.404;9.808;2023-07-13T01:03:37;3.80;;;2.62;;
43226;SDS011;28839;52.404;9.808;2023-07-13T01:10:32;3.97;;;2.37;;
43226;SDS011;28839;52.404;9.808;2023-07-13T01:17:34;5.90;;;3.05;;
43226;SDS011;28839;52.404;9.808;2023-07-13T01:24:30;5.78;;;2.90;;
43226;SDS011;28839;52.404;9.808;2023-07-13T01:31:24;6.82;;;2.70;;
43226;SDS011;28839;52.404;9.808;2023-07-13T01:38:19;5.45;;;2.55;;
43226;SDS011;28839;52.404;9.808;2023-07-13T01:45:17;7.03;;;3.10;;
43226;SDS011;28839;52.404;9.808;2023-07-13T01:52:11;4.30;;;2.85;;
43226;SDS011;28839;52.404;9.808;2023-07-13T01:59:04;6.05;;;3.42;;
43226;SDS011;28839;52.404;9.808;2023-07-13T02:06:00;6.10;;;2.85;;
43226;SDS011;28839;52.404;9.808;2023-07-13T02:12:53;4.55;;;3.15;;
43226;SDS011;28839;52.404;9.808;2023-07-13T02:19:47;7.20;;;2.97;;
43226;SDS011;28839;52.404;9.808;2023-07-13T02:26:42;7.77;;;3.20;;
43226;SDS011;28839;52.404;9.808;2023-07-13T02:33:36;5.85;;;3.00;;
43226;SDS011;28839;52.404;9.808;2023-07-13T02:40:30;5.00;;;3.40;;
43226;SDS011;28839;52.404;9.808;2023-07-13T02:47:26;4.57;;;2.70;;
43226;SDS011;28839;52.404;9.808;2023-07-13T02:54:20;4.05;;;2.53;;
43226;SDS011;28839;52.404;9.808;2023-07-13T03:01:14;5.60;;;2.63;;
43226;SDS011;28839;52.404;9.808;2023-07-13T03:08:12;5.30;;;2.87;;
43226;SDS011;28839;52.404;9.808;2023-07-13T03:15:06;6.87;;;2.60;;
43226;SDS011;28839;52.404;9.808;2023-07-13T03:22:00;5.07;;;2.60;;
43226;SDS011;28839;52.404;9.808;2023-07-13T03:28:55;5.27;;;2.93;;
43226;SDS011;28839;52.404;9.808;2023-07-13T03:35:49;7.37;;;3.08;;
43226;SDS011;28839;52.404;9.808;2023-07-13T03:42:42;5.73;;;2.23;;
43226;SDS011;28839;52.404;9.808;2023-07-13T03:49:38;5.80;;;2.63;;
43226;SDS011;28839;52.404;9.808;2023-07-13T03:56:31;7.00;;;2.53;;
43226;SDS011;28839;52.404;9.808;2023-07-13T04:03:25;8.50;;;2.45;;
43226;SDS011;28839;52.404;9.808;2023-07-13T04:10:21;11.75;;;2.80;;
43226;SDS011;28839;52.404;9.808;2023-07-13T04:17:15;8.80;;;3.08;;
43226;SDS011;28839;52.404;9.808;2023-07-13T04:24:09;5.13;;;2.60;;
43226;SDS011;28839;52.404;9.808;2023-07-13T04:31:04;11.27;;;4.23;;
43226;SDS011;28839;52.404;9.808;2023-07-13T04:37:58;5.82;;;2.72;;
43226;SDS011;28839;52.404;9.808;2023-07-13T04:44:52;7.55;;;3.05;;
43226;SDS011;28839;52.404;9.808;2023-07-13T04:51:47;6.03;;;2.92;;
43226;SDS011;28839;52.404;9.808;2023-07-13T04:58:41;8.23;;;2.75;;
43226;SDS011;28839;52.404;9.808;2023-07-13T05:05:35;8.33;;;2.73;;
43226;SDS011;28839;52.404;9.808;2023-07-13T05:12:30;4.67;;;2.50;;
43226;SDS011;28839;52.404;9.808;2023-07-13T05:19:24;9.50;;;2.50;;
43226;SDS011;28839;52.404;9.808;2023-07-13T05:26:18;10.25;;;2.85;;
43226;SDS011;28839;52.404;9.808;2023-07-13T05:40:07;7.35;;;1.98;;
43226;SDS011;28839;52.404;9.808;2023-07-13T05:53:57;8.55;;;2.90;;
43226;SDS011;28839;52.404;9.808;2023-07-13T06:00:58;6.15;;;1.95;;
43226;SDS011;28839;52.404;9.808;2023-07-13T06:07:53;12.07;;;2.65;;
43226;SDS011;28839;52.404;9.808;2023-07-13T06:14:48;8.35;;;2.95;;
43226;SDS011;28839;52.404;9.808;2023-07-13T06:21:42;9.27;;;2.80;;
43226;SDS011;28839;52.404;9.808;2023-07-13T06:28:36;11.18;;;3.62;;
43226;SDS011;28839;52.404;9.808;2023-07-13T06:35:33;13.55;;;3.05;;
43226;SDS011;28839;52.404;9.808;2023-07-13T06:42:26;7.43;;;2.60;;
43226;SDS011;28839;52.404;9.808;2023-07-13T06:49:20;7.87;;;3.12;;
43226;SDS011;28839;52.404;9.808;2023-07-13T06:56:15;6.70;;;2.70;;
43226;SDS011;28839;52.404;9.808;2023-07-13T07:03:09;9.98;;;2.83;;
43226;SDS011;28839;52.404;9.808;2023-07-13T07:10:03;7.70;;;2.33;;
43226;SDS011;28839;52.404;9.808;2023-07-13T07:16:59;5.72;;;2.15;;
43226;SDS011;28839;52.404;9.808;2023-07-13T07:23:53;8.52;;;2.78;;
43226;SDS011;28839;52.404;9.808;2023-07-13T07:30:47;6.37;;;2.00;;
43226;SDS011;28839;52.404;9.808;2023-07-13T07:37:43;5.37;;;1.95;;
43226;SDS011;28839;52.404;9.808;2023-07-13T07:44:37;4.40;;;2.03;;
43226;SDS011;28839;52.404;9.808;2023-07-13T07:51:31;6.65;;;2.35;;
43226;SDS011;28839;52.404;9.808;2023-07-13T07:58:26;9.48;;;2.15;;
43226;SDS011;28839;52.404;9.808;2023-07-13T08:05:20;4.82;;;2.10;;
43226;SDS011;28839;52.404;9.808;2023-07-13T08:12:14;9.02;;;2.12;;
43226;SDS011;28839;52.404;9.808;2023-07-13T08:19:09;7.00;;;2.80;;
43226;SDS011;28839;52.404;9.808;2023-07-13T08:26:03;7.50;;;1.92;;
43226;SDS011;28839;52.404;9.808;2023-07-13T08:32:57;6.87;;;1.98;;
43226;SDS011;28839;52.404;9.808;2023-07-13T08:46:45;9.82;;;2.65;;
43226;SDS011;28839;52.404;9.808;2023-07-13T08:53:46;10.15;;;2.97;;
43226;SDS011;28839;52.404;9.808;2023-07-13T09:00:46;6.80;;;2.20;;
43226;SDS011;28839;52.404;9.808;2023-07-13T09:07:51;3.07;;;2.17;;
43226;SDS011;28839;52.404;9.808;2023-07-13T09:15:06;8.93;;;2.10;;
43226;SDS011;28839;52.404;9.808;2023-07-13T09:22:16;5.05;;;2.00;;
43226;SDS011;28839;52.404;9.808;2023-07-13T09:29:24;6.53;;;1.85;;
43226;SDS011;28839;52.404;9.808;2023-07-13T09:36:22;8.48;;;2.53;;
43226;SDS011;28839;52.404;9.808;2023-07-13T09:43:19;4.57;;;2.00;;
43226;SDS011;28839;52.404;9.808;2023-07-13T09:50:15;8.25;;;2.03;;
43226;SDS011;28839;52.404;9.808;2023-07-13T09:57:12;6.32;;;2.00;;
43226;SDS011;28839;52.404;9.808;2023-07-13T10:04:12;8.45;;;2.20;;
43226;SDS011;28839;52.404;9.808;2023-07-13T10:11:09;4.03;;;1.92;;
43226;SDS011;28839;52.404;9.808;2023-07-13T10:18:07;5.78;;;2.35;;
43226;SDS011;28839;52.404;9.808;2023-07-13T10:25:07;5.43;;;1.70;;
43226;SDS011;28839;52.404;9.808;2023-07-13T10:32:11;4.68;;;1.67;;
43226;SDS011;28839;52.404;9.808;2023-07-13T10:39:06;2.42;;;1.37;;
43226;SDS011;28839;52.404;9.808;2023-07-13T10:46:05;3.60;;;1.87;;
43226;SDS011;28839;52.404;9.808;2023-07-13T10:53:02;3.83;;;1.83;;
43226;SDS011;28839;52.404;9.808;2023-07-13T11:00:13;5.30;;;1.80;;
43226;SDS011;28839;52.404;9.808;2023-07-13T11:07:16;6.50;;;2.05;;
43226;SDS011;28839;52.404;9.808;2023-07-13T11:14:26;7.28;;;2.37;;
43226;SDS011;28839;52.404;9.808;2023-07-13T11:21:22;3.90;;;1.87;;
43226;SDS011;28839;52.404;9.808;2023-07-13T11:28:25;4.82;;;2.20;;
43226;SDS011;28839;52.404;9.808;2023-07-13T11:35:23;4.50;;;1.63;;
43226;SDS011;28839;52.404;9.808;2023-07-13T11:42:20;5.60;;;2.00;;
43226;SDS011;28839;52.404;9.808;2023-07-13T11:49:18;4.43;;;1.73;;
43226;SDS011;28839;52.404;9.808;2023-07-13T11:56:13;3.65;;;1.67;;
43226;SDS011;28839;52.404;9.808;2023-07-13T12:03:07;2.67;;;1.45;;
43226;SDS011;28839;52.404;9.808;2023-07-13T12:10:10;7.28;;;2.00;;
43226;SDS011;28839;52.404;9.808;2023-07-13T12:17:15;4.10;;;2.30;;
43226;SDS011;28839;52.404;9.808;2023-07-13T12:24:13;4.03;;;1.58;;
43226;SDS011;28839;52.404;9.808;2023-07-13T12:31:22;7.07;;;2.30;;
43226;SDS011;28839;52.404;9.808;2023-07-13T12:38:18;3.15;;;1.87;;
43226;SDS011;28839;52.404;9.808;2023-07-13T12:45:16;4.03;;;1.90;;
43226;SDS011;28839;52.404;9.808;2023-07-13T12:52:14;5.12;;;2.90;;
43226;SDS011;28839;52.404;9.808;2023-07-13T12:59:09;3.15;;;1.73;;
43226;SDS011;28839;52.404;9.808;2023-07-13T13:06:20;3.33;;;1.85;;
43226;SDS011;28839;52.404;9.808;2023-07-13T13:13:16;4.75;;;1.85;;
43226;SDS011;28839;52.404;9.808;2023-07-13T13:20:14;5.53;;;2.60;;
43226;SDS011;28839;52.404;9.808;2023-07-13T13:27:12;4.18;;;2.10;;
43226;SDS011;28839;52.404;9.808;2023-07-13T13:34:12;3.72;;;2.37;;
43226;SDS011;28839;52.404;9.808;2023-07-13T13:41:07;7.12;;;2.65;;
43226;SDS011;28839;52.404;9.808;2023-07-13T13:48:02;3.75;;;2.17;;
43226;SDS011;28839;52.404;9.808;2023-07-13T14:01:52;10.88;;;3.72;;
43226;SDS011;28839;52.404;9.808;2023-07-13T14:08:46;5.62;;;2.42;;
43226;SDS011;28839;52.404;9.808;2023-07-13T14:15:41;5.60;;;2.70;;
43226;SDS011;28839;52.404;9.808;2023-07-13T14:22:35;6.05;;;2.53;;
43226;SDS011;28839;52.404;9.808;2023-07-13T14:29:30;6.32;;;2.28;;
43226;SDS011;28839;52.404;9.808;2023-07-13T14:36:28;5.62;;;2.75;;
43226;SDS011;28839;52.404;9.808;2023-07-13T14:43:23;11.63;;;3.05;;
43226;SDS011;28839;52.404;9.808;2023-07-13T14:50:22;3.70;;;2.40;;
43226;SDS011;28839;52.404;9.808;2023-07-13T14:57:24;3.12;;;2.35;;
43226;SDS011;28839;52.404;9.808;2023-07-13T15:04:18;2.85;;;2.55;;
43226;SDS011;28839;52.404;9.808;2023-07-13T15:11:12;5.20;;;3.58;;
43226;SDS011;28839;52.404;9.808;2023-07-13T15:18:08;4.00;;;3.20;;
43226;SDS011;28839;52.404;9.808;2023-07-13T15:25:04;3.67;;;2.80;;
43226;SDS011;28839;52.404;9.808;2023-07-13T15:32:08;4.78;;;2.37;;
43226;SDS011;28839;52.404;9.808;2023-07-13T15:39:06;4.07;;;2.83;;
43226;SDS011;28839;52.404;9.808;2023-07-13T15:46:06;3.45;;;2.67;;
43226;SDS011;28839;52.404;9.808;2023-07-13T15:53:00;3.08;;;2.37;;
43226;SDS011;28839;52.404;9.808;2023-07-13T15:59:56;4.65;;;3.00;;
43226;SDS011;28839;52.404;9.808;2023-07-13T16:06:51;3.67;;;2.92;;
43226;SDS011;28839;52.404;9.808;2023-07-13T16:13:45;4.17;;;2.73;;
43226;SDS011;28839;52.404;9.808;2023-07-13T16:20:41;4.10;;;3.15;;
43226;SDS011;28839;52.404;9.808;2023-07-13T16:27:35;5.32;;;3.20;;
43226;SDS011;28839;52.404;9.808;2023-07-13T16:34:29;4.07;;;2.63;;
43226;SDS011;28839;52.404;9.808;2023-07-13T16:41:25;5.30;;;3.03;;
43226;SDS011;28839;52.404;9.808;2023-07-13T16:48:19;4.43;;;3.10;;
43226;SDS011;28839;52.404;9.808;2023-07-13T16:55:16;4.50;;;3.25;;
43226;SDS011;28839;52.404;9.808;2023-07-13T17:02:26;4.68;;;4.15;;
43226;SDS011;28839;52.404;9.808;2023-07-13T17:09:24;6.37;;;4.12;;
43226;SDS011;28839;52.404;9.808;2023-07-13T17:16:18;5.65;;;4.07;;
43226;SDS011;28839;52.404;9.808;2023-07-13T17:23:14;5.12;;;3.50;;
43226;SDS011;28839;52.404;9.808;2023-07-13T17:30:13;5.68;;;3.42;;
43226;SDS011;28839;52.404;9.808;2023-07-13T17:37:09;5.80;;;2.95;;
43226;SDS011;28839;52.404;9.808;2023-07-13T17:44:06;4.78;;;3.47;;
43226;SDS011;28839;52.404;9.808;2023-07-13T17:51:00;4.43;;;3.90;;
43226;SDS011;28839;52.404;9.808;2023-07-13T17:57:54;6.20;;;3.43;;
43226;SDS011;28839;52.404;9.808;2023-07-13T18:04:49;4.87;;;3.70;;
43226;SDS011;28839;52.404;9.808;2023-07-13T18:11:43;3.53;;;3.12;;
43226;SDS011;28839;52.404;9.808;2023-07-13T18:18:37;4.97;;;3.00;;
43226;SDS011;28839;52.404;9.808;2023-07-13T18:25:32;4.33;;;3.00;;
43226;SDS011;28839;52.404;9.808;2023-07-13T18:32:27;4.45;;;2.72;;
43226;SDS011;28839;52.404;9.808;2023-07-13T18:39:21;5.37;;;2.83;;
43226;SDS011;28839;52.404;9.808;2023-07-13T18:46:17;4.82;;;2.90;;
43226;SDS011;28839;52.404;9.808;2023-07-13T18:53:14;3.28;;;3.00;;
43226;SDS011;28839;52.404;9.808;2023-07-13T19:00:09;5.47;;;3.35;;
43226;SDS011;28839;52.404;9.808;2023-07-13T19:07:07;4.22;;;2.70;;
43226;SDS011;28839;52.404;9.808;2023-07-13T19:14:02;7.65;;;3.42;;
43226;SDS011;28839;52.404;9.808;2023-07-13T19:20:56;4.50;;;3.20;;
43226;SDS011;28839;52.404;9.808;2023-07-13T19:27:53;11.95;;;5.10;;
43226;SDS011;28839;52.404;9.808;2023-07-13T19:34:51;4.37;;;3.55;;
43226;SDS011;28839;52.404;9.808;2023-07-13T19:41:47;4.62;;;3.45;;
43226;SDS011;28839;52.404;9.808;2023-07-13T19:48:42;8.93;;;3.73;;
43226;SDS011;28839;52.404;9.808;2023-07-13T19:55:36;6.07;;;3.72;;
43226;SDS011;28839;52.404;9.808;2023-07-13T20:02:30;5.70;;;3.95;;
43226;SDS011;28839;52.404;9.808;2023-07-13T20:09:25;6.35;;;3.80;;
43226;SDS011;28839;52.404;9.808;2023-07-13T20:16:20;6.57;;;4.57;;
43226;SDS011;28839;52.404;9.808;2023-07-13T20:23:15;5.90;;;4.32;;
43226;SDS011;28839;52.404;9.808;2023-07-13T20:30:12;5.30;;;4.55;;
43226;SDS011;28839;52.404;9.808;2023-07-13T20:37:10;5.97;;;5.05;;
43226;SDS011;28839;52.404;9.808;2023-07-13T20:44:23;5.82;;;4.60;;
43226;SDS011;28839;52.404;9.808;2023-07-13T20:51:18;8.83;;;5.97;;
43226;SDS011;28839;52.404;9.808;2023-07-13T20:58:14;6.32;;;4.90;;
43226;SDS011;28839;52.404;9.808;2023-07-13T21:12:08;6.57;;;4.65;;
43226;SDS011;28839;52.404;9.808;2023-07-13T21:19:02;5.90;;;4.85;;
43226;SDS011;28839;52.404;9.808;2023-07-13T21:25:56;6.67;;;5.70;;
43226;SDS011;28839;52.404;9.808;2023-07-13T21:32:54;6.97;;;5.47;;
43226;SDS011;28839;52.404;9.808;2023-07-13T21:39:51;8.50;;;5.68;;
43226;SDS011;28839;52.404;9.808;2023-07-13T21:46:46;8.18;;;5.75;;
43226;SDS011;28839;52.404;9.808;2023-07-13T21:53:41;8.47;;;5.87;;
43226;SDS011;28839;52.404;9.808;2023-07-13T22:00:36;16.20;;;13.77;;
43226;SDS011;28839;52.404;9.808;2023-07-13T22:07:29;12.20;;;11.20;;
43226;SDS011;28839;52.404;9.808;2023-07-13T22:14:25;22.07;;;20.40;;
43226;SDS011;28839;52.404;9.808;2023-07-13T22:21:19;85.87;;;81.00;;
43226;SDS011;28839;52.404;9.808;2023-07-13T22:28:15;24.98;;;23.15;;
43226;SDS011;28839;52.404;9.808;2023-07-13T22:35:12;58.58;;;55.00;;
43226;SDS011;28839;52.404;9.808;2023-07-13T22:42:08;57.20;;;53.90;;
43226;SDS011;28839;52.404;9.808;2023-07-13T22:49:15;106.03;;;99.93;;
43226;SDS011;28839;52.404;9.808;2023-07-13T22:56:12;28.77;;;27.10;;
43226;SDS011;28839;52.404;9.808;2023-07-13T23:03:06;34.28;;;32.28;;
43226;SDS011;28839;52.404;9.808;2023-07-13T23:17:10;9.43;;;8.43;;
43226;SDS011;28839;52.404;9.808;2023-07-13T23:24:08;14.95;;;13.77;;
43226;SDS011;28839;52.404;9.808;2023-07-13T23:31:07;27.92;;;25.88;;
43226;SDS011;28839;52.404;9.808;2023-07-13T23:38:07;10.80;;;9.93;;
43226;SDS011;28839;52.404;9.808;2023-07-13T23:45:03;12.00;;;8.90;;
43226;SDS011;28839;52.404;9.808;2023-07-13T23:51:58;35.03;;;32.88;;
43226;SDS011;28839;52.404;9.808;2023-07-13T23:58:54;12.30;;;11.23;;
